Time;durP1;ratioP1;P1;durP2;ratioP2;P2;SDS_P1;SDS_P2;PMS_P1;PMS_P2;Temp;Humidity;BMP_temperature;BMP_pressure;BME280_temperature;BME280_humidity;BME280_pressure;Samples;Min_cycle;Max_cycle;Signal;HPM_P1;HPM_P2
2023/04/20 00:01:12;;;;;;;;;;;;;;;4.91;63.60;98007.53;5070586;28;19921;-55
2023/04/20 00:03:40;;;;;;;;;;;;;;;4.74;63.92;97997.06;5065843;28;19920;-55
2023/04/20 00:06:08;;;;;;;;;;;;;;;4.68;64.21;97998.91;5071783;28;20285;-55
2023/04/20 00:08:36;;;;;;;;;;;;;;;4.85;64.69;97998.66;5052087;28;19927;-55
2023/04/20 00:11:04;;;;;;;;;;;;;;;4.82;64.07;97993.78;5066673;28;19928;-55
2023/04/20 00:13:31;;;;;;;;;;;;;;;4.76;64.17;97994.09;5068506;28;20281;-55
2023/04/20 00:16:02;;;;;;;;;;;;;;;4.68;64.70;97990.03;5066014;28;19995;-55
2023/04/20 00:18:35;;;;;;;;;;;;;;;4.63;64.22;97988.16;5069634;28;19928;-54
2023/04/20 00:21:03;;;;;;;;;;;;;;;4.59;64.69;97979.03;5070358;28;19932;-55
2023/04/20 00:23:31;;;;;;;;;;;;;;;4.47;65.33;97978.47;5066650;28;19921;-54
2023/04/20 00:25:58;;;;;;;;;;;;;;;4.35;65.51;97967.19;5064127;28;19920;-55
2023/04/20 00:28:26;;;;;;;;;;;;;;;4.26;65.95;97974.19;5060353;28;19920;-55
2023/04/20 00:30:54;;;;;;;;;;;;;;;4.32;66.09;97968.56;5092046;28;19927;-55
2023/04/20 00:33:22;;;;;;;;;;;;;;;4.28;66.09;97967.47;5074840;28;19971;-55
2023/04/20 00:35:51;;;;;;;;;;;;;;;4.27;65.83;97962.38;5055906;28;19920;-55
2023/04/20 00:38:19;;;;;;;;;;;;;;;4.43;65.87;97964.78;5066580;28;19942;-54
2023/04/20 00:40:51;;;;;;;;;;;;;;;4.29;65.89;97962.91;5071499;28;19920;-55
2023/04/20 00:43:19;;;;;;;;;;;;;;;4.30;66.13;97965.31;5072170;28;20600;-54
2023/04/20 00:45:51;;;;;;;;;;;;;;;4.34;65.48;97957.53;5057495;28;19921;-56
2023/04/20 00:48:19;;;;;;;;;;;;;;;4.28;65.45;97955.91;5076485;28;19974;-55
2023/04/20 00:50:47;;;;;;;;;;;;;;;4.25;65.67;97951.06;5071278;28;19920;-55
2023/04/20 00:53:17;;;;;;;;;;;;;;;4.19;66.15;97952.94;5064338;28;19928;-54
2023/04/20 00:55:45;;;;;;;;;;;;;;;4.13;66.08;97945.94;5084642;28;19989;-55
2023/04/20 00:58:12;;;;;;;;;;;;;;;4.18;65.63;97943.25;5051963;28;19924;-54
2023/04/20 01:00:40;;;;;;;;;;;;;;;4.09;66.22;97940.28;5061882;28;19935;-54
2023/04/20 01:03:09;;;;;;;;;;;;;;;4.04;66.90;97932.22;5062631;28;19927;-55
2023/04/20 01:05:38;;;;;;;;;;;;;;;3.99;66.74;97934.91;5063438;28;20013;-55
2023/04/20 01:08:05;;;;;;;;;;;;;;;3.93;67.35;97931.41;5064787;28;19928;-57
2023/04/20 01:10:35;;;;;;;;;;;;;;;4.03;66.54;97922.56;5057670;28;19920;-57
2023/04/20 01:13:06;;;;;;;;;;;;;;;3.97;66.94;97925.50;5063883;28;20003;-57
2023/04/20 01:15:35;;;;;;;;;;;;;;;4.08;66.77;97930.63;5067323;28;19952;-54
2023/04/20 01:18:04;;;;;;;;;;;;;;;4.08;66.68;97929.81;5062820;28;19927;-55
2023/04/20 01:20:33;;;;;;;;;;;;;;;3.96;67.12;97935.47;5071887;28;20324;-55
2023/04/20 01:23:02;;;;;;;;;;;;;;;3.94;67.49;97934.91;5069567;28;19928;-54
2023/04/20 01:25:30;;;;;;;;;;;;;;;4.03;67.50;97943.25;5066806;28;19921;-55
2023/04/20 01:27:58;;;;;;;;;;;;;;;4.13;67.25;97943.25;5065353;28;19966;-55
2023/04/20 01:30:26;;;;;;;;;;;;;;;4.18;67.69;97940.56;5071270;28;19924;-55
2023/04/20 01:32:55;;;;;;;;;;;;;;;4.14;67.22;97934.91;5064340;28;19974;-55
2023/04/20 01:35:23;;;;;;;;;;;;;;;4.23;66.85;97932.50;5053830;28;19927;-55
2023/04/20 01:37:51;;;;;;;;;;;;;;;4.29;66.84;97938.69;5061461;28;19973;-54
2023/04/20 01:40:20;;;;;;;;;;;;;;;4.36;66.92;97931.94;5067011;28;20335;-55
2023/04/20 01:42:48;;;;;;;;;;;;;;;4.23;66.53;97927.13;5067721;28;19928;-56
2023/04/20 01:45:15;;;;;;;;;;;;;;;4.19;66.81;97931.44;5068037;28;19928;-54
2023/04/20 01:47:43;;;;;;;;;;;;;;;4.15;66.21;97920.41;5071054;28;19920;-55
2023/04/20 01:50:11;;;;;;;;;;;;;;;3.90;66.67;97920.41;5078302;28;19931;-58
2023/04/20 01:52:39;;;;;;;;;;;;;;;3.84;67.20;97924.97;5055323;28;20378;-54
2023/04/20 01:55:07;;;;;;;;;;;;;;;3.78;67.01;97918.00;5064976;28;19925;-55
2023/04/20 01:57:36;;;;;;;;;;;;;;;3.78;67.67;97914.47;5067350;28;19974;-55
2023/04/20 02:00:05;;;;;;;;;;;;;;;3.75;67.93;97912.31;5058468;28;19928;-55
2023/04/20 02:02:40;;;;;;;;;;;;;;;3.87;67.84;97920.94;5061813;28;19921;-54
2023/04/20 02:05:11;;;;;;;;;;;;;;;3.78;67.88;97920.66;5067013;28;20528;-55
2023/04/20 02:07:39;;;;;;;;;;;;;;;3.61;68.19;97912.84;5067287;28;19954;-55
2023/04/20 02:10:07;;;;;;;;;;;;;;;3.61;67.79;97912.84;5061625;28;19928;-56
2023/04/20 02:12:37;;;;;;;;;;;;;;;3.44;68.74;97914.94;5067003;28;19987;-56
2023/04/20 02:15:06;;;;;;;;;;;;;;;3.44;68.84;97906.09;5068282;28;19959;-54
2023/04/20 02:17:35;;;;;;;;;;;;;;;3.51;68.81;97904.75;5060542;28;20366;-55
2023/04/20 02:20:05;;;;;;;;;;;;;;;3.38;69.26;97913.31;5051403;28;20262;-55
2023/04/20 02:22:33;;;;;;;;;;;;;;;3.35;69.32;97895.03;5068708;28;19920;-55
2023/04/20 02:25:02;;;;;;;;;;;;;;;3.34;69.61;97906.88;5062975;28;20354;-55
2023/04/20 02:27:30;;;;;;;;;;;;;;;3.28;69.36;97905.25;5062228;28;19920;-56
2023/04/20 02:30:00;;;;;;;;;;;;;;;3.24;70.03;97898.78;5078326;28;19925;-55
2023/04/20 02:32:28;;;;;;;;;;;;;;;3.23;70.20;97897.16;5069144;28;19959;-60
2023/04/20 02:34:58;;;;;;;;;;;;;;;3.21;70.13;97897.44;5070908;28;19927;-56
2023/04/20 02:37:26;;;;;;;;;;;;;;;3.28;70.51;97884.56;5064730;28;19968;-55
2023/04/20 02:39:53;;;;;;;;;;;;;;;3.45;69.69;97887.00;5072643;28;19920;-57
2023/04/20 02:42:21;;;;;;;;;;;;;;;3.43;69.93;97878.44;5056805;28;19971;-55
2023/04/20 02:44:51;;;;;;;;;;;;;;;3.41;69.84;97883.25;5063282;28;20300;-56
2023/04/20 02:47:20;;;;;;;;;;;;;;;3.33;69.79;97881.09;5065645;28;20195;-54
2023/04/20 02:49:49;;;;;;;;;;;;;;;3.37;70.30;97884.88;5061869;28;19943;-55
2023/04/20 02:52:18;;;;;;;;;;;;;;;3.34;70.43;97882.69;5063119;28;20297;-55
2023/04/20 02:54:46;;;;;;;;;;;;;;;3.51;70.04;97874.41;5070591;28;19978;-56
2023/04/20 02:57:13;;;;;;;;;;;;;;;3.39;69.77;97880.03;5054407;28;20313;-55
2023/04/20 02:59:42;;;;;;;;;;;;;;;3.43;69.93;97875.75;5065471;28;19920;-55
2023/04/20 03:02:21;;;;;;;;;;;;;;;3.37;70.05;97874.94;5065900;28;19920;-55
2023/04/20 03:04:50;;;;;;;;;;;;;;;3.42;70.30;97882.19;5061799;28;19968;-54
2023/04/20 03:07:20;;;;;;;;;;;;;;;3.37;70.08;97876.81;5057397;28;19956;-54
2023/04/20 03:09:49;;;;;;;;;;;;;;;3.36;70.08;97877.88;5050565;28;19927;-55
2023/04/20 03:12:27;;;;;;;;;;;;;;;3.24;70.72;97866.56;5054349;28;19925;-55
2023/04/20 03:15:31;;;;;;;;;;;;;;;3.22;70.61;97866.03;5022169;28;19925;-55
2023/04/20 03:18:18;;;;;;;;;;;;;;;3.19;71.15;97871.91;5053704;28;19971;-55
2023/04/20 03:20:46;;;;;;;;;;;;;;;3.40;70.73;97876.25;5064303;28;19924;-56
2023/04/20 03:23:14;;;;;;;;;;;;;;;3.34;70.38;97864.69;5064119;28;19935;-55
2023/04/20 03:25:43;;;;;;;;;;;;;;;3.23;70.68;97865.75;5048261;28;19931;-55
2023/04/20 03:28:18;;;;;;;;;;;;;;;3.15;71.51;97861.72;5053545;28;20343;-54
2023/04/20 03:30:46;;;;;;;;;;;;;;;3.10;71.46;97859.03;5060175;28;19921;-56
2023/04/20 03:33:15;;;;;;;;;;;;;;;3.07;71.22;97861.41;5053536;28;19967;-54
2023/04/20 03:35:45;;;;;;;;;;;;;;;3.11;71.60;97871.38;5061743;28;19928;-57
2023/04/20 03:38:13;;;;;;;;;;;;;;;2.98;71.58;97866.47;5066248;28;19924;-55
2023/04/20 03:40:40;;;;;;;;;;;;;;;3.10;71.13;97872.44;5068842;28;20401;-55
2023/04/20 03:43:10;;;;;;;;;;;;;;;3.06;71.22;97865.97;5055711;28;19920;-56
2023/04/20 03:45:37;;;;;;;;;;;;;;;3.01;71.41;97862.47;5059316;28;19920;-55
2023/04/20 03:48:05;;;;;;;;;;;;;;;2.88;71.48;97864.59;5059310;28;19932;-55
2023/04/20 03:50:35;;;;;;;;;;;;;;;2.84;71.71;97868.03;5063767;28;19921;-55
2023/04/20 03:53:05;;;;;;;;;;;;;;;2.81;71.49;97860.50;5064612;28;21779;-56
2023/04/20 03:55:34;;;;;;;;;;;;;;;2.71;72.54;97858.59;5059243;28;19971;-55
2023/04/20 03:58:05;;;;;;;;;;;;;;;2.71;72.10;97861.25;5065180;28;19943;-55
2023/04/20 04:00:45;;;;;;;;;;;;;;;2.76;72.56;97866.66;5062635;28;20370;-54
2023/04/20 04:03:15;;;;;;;;;;;;;;;2.58;72.82;97859.88;5059473;28;19947;-55
2023/04/20 04:05:43;;;;;;;;;;;;;;;2.59;72.96;97856.13;5054506;28;19921;-58
2023/04/20 04:08:12;;;;;;;;;;;;;;;2.54;73.18;97857.97;5062857;28;20626;-54
2023/04/20 04:10:40;;;;;;;;;;;;;;;2.58;72.78;97843.78;5067071;28;19920;-57
2023/04/20 04:13:08;;;;;;;;;;;;;;;2.47;73.08;97847.50;5050349;28;19921;-55
2023/04/20 04:15:48;;;;;;;;;;;;;;;2.52;72.96;97855.56;5072103;28;19972;-55
2023/04/20 04:18:17;;;;;;;;;;;;;;;2.53;73.26;97859.03;5054020;28;19956;-55
2023/04/20 04:20:44;;;;;;;;;;;;;;;2.69;73.02;97858.06;5053357;28;19921;-55
2023/04/20 04:23:14;;;;;;;;;;;;;;;2.81;72.61;97855.94;5056866;28;20332;-55
2023/04/20 04:25:45;;;;;;;;;;;;;;;2.87;72.19;97856.78;5064761;28;19925;-56
2023/04/20 04:28:15;;;;;;;;;;;;;;;2.81;72.36;97853.25;5053684;28;20023;-55
2023/04/20 04:30:53;;;;;;;;;;;;;;;2.96;72.05;97849.84;5059205;28;19971;-56
2023/04/20 04:33:22;;;;;;;;;;;;;;;2.86;72.08;97857.84;5066148;28;19932;-55
2023/04/20 04:35:52;;;;;;;;;;;;;;;3.04;72.17;97857.41;5061349;28;19983;-57
2023/04/20 04:38:22;;;;;;;;;;;;;;;2.79;72.65;97857.28;5064608;28;19921;-55
2023/04/20 04:40:51;;;;;;;;;;;;;;;2.78;72.73;97863.72;5065232;28;20313;-56
2023/04/20 04:43:19;;;;;;;;;;;;;;;2.84;73.03;97860.81;5064889;28;19944;-55
2023/04/20 04:45:58;;;;;;;;;;;;;;;2.97;72.46;97858.69;5080954;28;19925;-55
2023/04/20 04:48:27;;;;;;;;;;;;;;;2.98;72.51;97853.06;5066626;28;19979;-55
2023/04/20 04:50:55;;;;;;;;;;;;;;;3.02;72.00;97853.34;5065305;28;19921;-55
2023/04/20 04:53:24;;;;;;;;;;;;;;;3.07;72.01;97851.47;5058861;28;19920;-55
2023/04/20 04:55:52;;;;;;;;;;;;;;;3.27;71.83;97849.94;5062955;28;19932;-55
2023/04/20 04:58:20;;;;;;;;;;;;;;;3.26;71.88;97845.63;5068338;28;19921;-54
2023/04/20 05:00:48;;;;;;;;;;;;;;;3.39;71.24;97850.47;5057188;28;19940;-53
2023/04/20 05:03:16;;;;;;;;;;;;;;;3.60;70.44;97852.13;5073560;28;19929;-53
2023/04/20 05:05:44;;;;;;;;;;;;;;;3.53;70.48;97854.28;5058182;28;19925;-55
2023/04/20 05:08:12;;;;;;;;;;;;;;;3.60;70.89;97854.81;5053779;28;19924;-53
2023/04/20 05:10:41;;;;;;;;;;;;;;;3.57;70.52;97849.16;5059961;28;20334;-54
2023/04/20 05:13:09;;;;;;;;;;;;;;;3.61;70.37;97845.66;5053662;28;19921;-54
2023/04/20 05:15:37;;;;;;;;;;;;;;;3.67;70.19;97846.47;5067094;28;19921;-53
2023/04/20 05:18:05;;;;;;;;;;;;;;;3.70;70.58;97848.63;5053916;28;19948;-55
2023/04/20 05:20:33;;;;;;;;;;;;;;;3.63;70.45;97853.47;5055231;28;19925;-56
2023/04/20 05:23:01;;;;;;;;;;;;;;;3.74;69.93;97854.28;5065399;28;19955;-54
2023/04/20 05:25:28;;;;;;;;;;;;;;;3.96;69.72;97851.34;5057306;28;19920;-55
2023/04/20 05:27:57;;;;;;;;;;;;;;;4.00;69.36;97863.16;5059225;28;20361;-54
2023/04/20 05:30:25;;;;;;;;;;;;;;;4.03;69.04;97852.66;5053814;28;19921;-54
2023/04/20 05:32:53;;;;;;;;;;;;;;;4.06;69.13;97848.66;5056072;28;19920;-61
2023/04/20 05:35:21;;;;;;;;;;;;;;;4.09;69.06;97856.94;5054634;28;20546;-54
2023/04/20 05:37:49;;;;;;;;;;;;;;;4.22;68.63;97852.13;5061085;28;20011;-58
2023/04/20 05:40:18;;;;;;;;;;;;;;;4.34;68.61;97852.63;5068059;28;20408;-55
2023/04/20 05:42:45;;;;;;;;;;;;;;;4.33;68.34;97848.34;5056425;28;19921;-56
2023/04/20 05:45:14;;;;;;;;;;;;;;;4.49;67.91;97851.78;5065015;28;19925;-55
2023/04/20 05:47:42;;;;;;;;;;;;;;;4.57;68.16;97852.03;5067176;28;20003;-57
2023/04/20 05:50:10;;;;;;;;;;;;;;;4.74;67.43;97849.03;5060431;28;19924;-54
2023/04/20 05:52:38;;;;;;;;;;;;;;;4.82;67.04;97851.13;5056634;28;19920;-54
2023/04/20 05:55:06;;;;;;;;;;;;;;;4.94;66.43;97856.19;5064972;28;20324;-54
2023/04/20 05:57:40;;;;;;;;;;;;;;;4.90;66.69;97855.13;5064386;28;19921;-55
2023/04/20 06:00:10;;;;;;;;;;;;;;;4.99;66.32;97854.28;5059529;28;19975;-54
2023/04/20 06:02:43;;;;;;;;;;;;;;;5.07;65.66;97852.13;5051731;28;20269;-57
2023/04/20 06:05:11;;;;;;;;;;;;;;;5.11;65.42;97851.25;5063702;28;19967;-55
2023/04/20 06:07:39;;;;;;;;;;;;;;;5.12;65.75;97852.09;5064760;28;19926;-54
2023/04/20 06:10:07;;;;;;;;;;;;;;;5.19;65.19;97864.16;5058264;28;19921;-54
2023/04/20 06:12:35;;;;;;;;;;;;;;;5.33;65.06;97858.19;5053861;28;20242;-54
2023/04/20 06:15:05;;;;;;;;;;;;;;;5.38;64.78;97850.03;5053288;28;20281;-54
2023/04/20 06:17:34;;;;;;;;;;;;;;;5.55;64.74;97855.88;5063288;28;19920;-55
2023/04/20 06:20:05;;;;;;;;;;;;;;;5.75;63.85;97861.13;5059056;28;19921;-55
2023/04/20 06:22:33;;;;;;;;;;;;;;;5.93;63.52;97861.56;5065968;28;19920;-55
2023/04/20 06:25:01;;;;;;;;;;;;;;;6.11;62.78;97852.75;5059885;28;19925;-53
2023/04/20 06:27:29;;;;;;;;;;;;;;;6.16;62.36;97863.50;5059225;28;19928;-54
2023/04/20 06:29:57;;;;;;;;;;;;;;;6.16;62.69;97855.41;5065925;28;19950;-56
2023/04/20 06:32:24;;;;;;;;;;;;;;;6.34;61.99;97858.47;5060925;28;19936;-55
2023/04/20 06:34:52;;;;;;;;;;;;;;;6.39;61.44;97863.84;5054680;28;19925;-58
2023/04/20 06:37:21;;;;;;;;;;;;;;;6.43;61.84;97854.88;5067300;28;19920;-56
2023/04/20 06:39:53;;;;;;;;;;;;;;;6.49;61.68;97858.34;5068049;28;19944;-61
2023/04/20 06:42:21;;;;;;;;;;;;;;;6.68;61.12;97853.03;5065770;28;19921;-53
2023/04/20 06:44:50;;;;;;;;;;;;;;;6.81;60.52;97861.22;5060964;28;19928;-56
2023/04/20 06:47:18;;;;;;;;;;;;;;;6.94;60.32;97859.72;5065099;28;19925;-54
2023/04/20 06:49:45;;;;;;;;;;;;;;;7.20;59.84;97854.00;5068973;28;20300;-55
2023/04/20 06:52:13;;;;;;;;;;;;;;;7.23;59.05;97856.91;5061738;28;19925;-53
2023/04/20 06:54:42;;;;;;;;;;;;;;;7.15;59.20;97854.88;5064000;28;20262;-54
2023/04/20 06:57:10;;;;;;;;;;;;;;;7.11;58.49;97853.84;5051462;28;19921;-55
2023/04/20 06:59:38;;;;;;;;;;;;;;;6.93;58.66;97851.94;5051983;28;19921;-54
2023/04/20 07:02:06;;;;;;;;;;;;;;;6.78;59.38;97856.41;5047617;28;20295;-54
2023/04/20 07:04:34;;;;;;;;;;;;;;;6.83;59.30;97848.25;5047913;28;19920;-53
2023/04/20 07:07:02;;;;;;;;;;;;;;;6.97;59.29;97852.94;5051448;28;19920;-54
2023/04/20 07:09:30;;;;;;;;;;;;;;;7.18;59.04;97858.88;5048759;28;19921;-53
2023/04/20 07:11:59;;;;;;;;;;;;;;;7.37;58.75;97857.00;5050677;28;19921;-55
2023/04/20 07:14:27;;;;;;;;;;;;;;;7.56;58.14;97848.88;5053501;28;19924;-55
2023/04/20 07:16:55;;;;;;;;;;;;;;;7.73;57.71;97848.41;5045732;28;20362;-54
2023/04/20 07:19:23;;;;;;;;;;;;;;;7.81;57.22;97853.13;5044748;28;19975;-53
2023/04/20 07:21:51;;;;;;;;;;;;;;;7.88;56.57;97856.25;5044739;28;20270;-61
2023/04/20 07:24:19;;;;;;;;;;;;;;;8.05;55.95;97851.13;5044146;28;19983;-54
2023/04/20 07:26:47;;;;;;;;;;;;;;;8.14;55.93;97852.03;5044652;28;19943;-54
2023/04/20 07:29:17;;;;;;;;;;;;;;;8.04;56.02;97849.50;5049265;28;19920;-54
2023/04/20 07:31:45;;;;;;;;;;;;;;;7.98;56.24;97850.66;5054856;28;19924;-56
2023/04/20 07:34:15;;;;;;;;;;;;;;;8.03;56.38;97853.28;5051295;28;19928;-54
2023/04/20 07:36:43;;;;;;;;;;;;;;;7.97;55.89;97853.69;5045850;28;20281;-55
2023/04/20 07:39:11;;;;;;;;;;;;;;;7.96;56.38;97852.06;5044370;28;20370;-54
2023/04/20 07:41:39;;;;;;;;;;;;;;;7.97;55.71;97848.28;5054094;28;19920;-54
2023/04/20 07:44:07;;;;;;;;;;;;;;;7.98;55.98;97849.88;5047537;28;19921;-54
2023/04/20 07:46:36;;;;;;;;;;;;;;;7.90;55.92;97859.47;5049108;28;19927;-54
2023/04/20 07:49:04;;;;;;;;;;;;;;;7.98;56.52;97850.66;5028868;28;19920;-55
2023/04/20 07:51:33;;;;;;;;;;;;;;;8.02;55.92;97850.91;5048009;28;19928;-55
2023/04/20 07:54:01;;;;;;;;;;;;;;;8.16;55.94;97859.06;5044612;28;19925;-55
2023/04/20 07:56:28;;;;;;;;;;;;;;;8.30;55.44;97859.88;5030271;28;20278;-55
2023/04/20 07:59:02;;;;;;;;;;;;;;;8.42;54.58;97859.47;5045527;28;19929;-55
2023/04/20 08:01:30;;;;;;;;;;;;;;;8.42;54.05;97864.88;5043912;28;19956;-54
2023/04/20 08:03:59;;;;;;;;;;;;;;;8.52;53.70;97853.84;5044720;28;20594;-54
2023/04/20 08:06:27;;;;;;;;;;;;;;;8.56;53.50;97850.22;5039457;28;20286;-55
2023/04/20 08:08:55;;;;;;;;;;;;;;;8.61;53.44;97850.13;5053004;28;19921;-55
2023/04/20 08:11:23;;;;;;;;;;;;;;;8.78;53.11;97846.81;5045572;28;19920;-55
2023/04/20 08:13:51;;;;;;;;;;;;;;;8.88;53.20;97843.91;5044723;28;19928;-61
2023/04/20 08:16:19;;;;;;;;;;;;;;;8.93;52.23;97838.41;5044012;28;19921;-54
2023/04/20 08:18:47;;;;;;;;;;;;;;;8.82;52.43;97844.31;5049211;28;21708;-54
2023/04/20 08:21:17;;;;;;;;;;;;;;;8.81;53.27;97843.53;5031940;28;20282;-55
2023/04/20 08:23:44;;;;;;;;;;;;;;;8.81;52.65;97840.81;5024722;28;19921;-54
2023/04/20 08:26:14;;;;;;;;;;;;;;;8.82;52.72;97837.00;5049112;28;19924;-54
2023/04/20 08:28:43;;;;;;;;;;;;;;;8.89;52.02;97837.41;5042645;28;19921;-54
2023/04/20 08:31:13;;;;;;;;;;;;;;;9.01;52.05;97828.78;5050284;28;19928;-54
2023/04/20 08:33:41;;;;;;;;;;;;;;;9.25;51.36;97833.94;5052903;28;19928;-55
2023/04/20 08:36:09;;;;;;;;;;;;;;;9.32;50.91;97831.63;5039942;28;19939;-54
2023/04/20 08:38:38;;;;;;;;;;;;;;;9.35;51.09;97833.72;5050092;28;19920;-54
2023/04/20 08:41:06;;;;;;;;;;;;;;;9.54;51.10;97819.22;5029396;28;19947;-55
2023/04/20 08:43:34;;;;;;;;;;;;;;;9.56;50.24;97825.13;5044566;28;20285;-55
2023/04/20 08:46:02;;;;;;;;;;;;;;;9.57;50.18;97829.44;5050087;28;19920;-55
2023/04/20 08:48:31;;;;;;;;;;;;;;;9.72;50.48;97826.38;5041940;28;20582;-55
2023/04/20 08:51:00;;;;;;;;;;;;;;;9.89;50.56;97818.38;5048178;28;19956;-56
2023/04/20 08:53:28;;;;;;;;;;;;;;;9.85;49.60;97816.56;5047488;28;19925;-55
2023/04/20 08:55:57;;;;;;;;;;;;;;;9.87;49.63;97823.31;5048505;28;19929;-56
2023/04/20 08:58:25;;;;;;;;;;;;;;;9.78;49.50;97818.94;5043044;28;19929;-56
2023/04/20 09:00:53;;;;;;;;;;;;;;;9.64;49.78;97821.69;5051330;28;19950;-56
2023/04/20 09:03:32;;;;;;;;;;;;;;;9.60;49.69;97820.72;5045189;28;19921;-56
2023/04/20 09:06:01;;;;;;;;;;;;;;;9.65;50.00;97820.59;5026848;28;19925;-56
2023/04/20 09:08:34;;;;;;;;;;;;;;;9.67;50.15;97823.78;5045863;28;20046;-55
2023/04/20 09:11:03;;;;;;;;;;;;;;;9.58;49.53;97825.63;5043746;28;20333;-57
2023/04/20 09:13:31;;;;;;;;;;;;;;;9.68;49.78;97819.97;5048580;28;20381;-55
2023/04/20 09:16:09;;;;;;;;;;;;;;;9.57;49.37;97824.03;5038236;28;19940;-58
2023/04/20 09:18:38;;;;;;;;;;;;;;;9.71;49.12;97824.78;5042272;28;19961;-56
2023/04/20 09:21:09;;;;;;;;;;;;;;;9.87;48.51;97827.94;5047248;28;19928;-55
2023/04/20 09:23:37;;;;;;;;;;;;;;;9.75;48.17;97820.34;5041074;28;19921;-55
2023/04/20 09:26:07;;;;;;;;;;;;;;;9.66;48.67;97820.28;5037126;28;19928;-56
2023/04/20 09:28:38;;;;;;;;;;;;;;;9.69;49.23;97821.56;5048395;28;19920;-56
2023/04/20 09:31:06;;;;;;;;;;;;;;;9.69;49.00;97816.97;5034292;28;19925;-55
2023/04/20 09:33:35;;;;;;;;;;;;;;;9.87;49.07;97822.50;5040622;28;19928;-55
2023/04/20 09:36:04;;;;;;;;;;;;;;;9.80;48.49;97817.53;5046727;28;19929;-58
2023/04/20 09:38:32;;;;;;;;;;;;;;;9.69;48.70;97811.53;5052346;28;19920;-55
2023/04/20 09:41:00;;;;;;;;;;;;;;;9.56;49.28;97808.88;5045892;28;19929;-55
2023/04/20 09:43:31;;;;;;;;;;;;;;;9.73;48.94;97806.28;5044175;28;19997;-56
2023/04/20 09:45:59;;;;;;;;;;;;;;;9.78;49.07;97802.66;5043823;28;20180;-57
2023/04/20 09:48:26;;;;;;;;;;;;;;;9.93;48.68;97800.34;5047946;28;21223;-55
2023/04/20 09:50:56;;;;;;;;;;;;;;;9.82;49.01;97804.44;5050702;28;19921;-55
2023/04/20 09:53:24;;;;;;;;;;;;;;;9.93;49.33;97802.28;5042719;28;19925;-55
2023/04/20 09:55:52;;;;;;;;;;;;;;;9.80;49.41;97793.09;5046866;28;19939;-58
2023/04/20 09:58:20;;;;;;;;;;;;;;;10.04;49.67;97794.69;5047613;28;20413;-56
2023/04/20 10:00:50;;;;;;;;;;;;;;;10.07;48.65;97797.59;5046915;28;19921;-55
2023/04/20 10:03:18;;;;;;;;;;;;;;;10.19;48.87;97791.56;5048744;28;19960;-55
2023/04/20 10:05:47;;;;;;;;;;;;;;;10.37;49.26;97789.78;5042707;28;19952;-56
2023/04/20 10:08:14;;;;;;;;;;;;;;;10.25;48.97;97787.63;5046684;28;19921;-56
2023/04/20 10:10:43;;;;;;;;;;;;;;;10.17;48.69;97782.94;5049218;28;20240;-56
2023/04/20 10:13:11;;;;;;;;;;;;;;;10.25;49.42;97789.56;5045354;28;20266;-57
2023/04/20 10:15:39;;;;;;;;;;;;;;;10.18;48.81;97784.56;5044324;28;19927;-56
2023/04/20 10:18:18;;;;;;;;;;;;;;;9.86;49.26;97782.94;5042993;28;19925;-54
2023/04/20 10:20:46;;;;;;;;;;;;;;;9.93;49.24;97773.22;5045248;28;20019;-57
2023/04/20 10:23:15;;;;;;;;;;;;;;;9.96;49.50;97769.91;5041921;28;20363;-54
2023/04/20 10:25:44;;;;;;;;;;;;;;;10.05;49.45;97774.56;5044616;28;19961;-56
2023/04/20 10:28:12;;;;;;;;;;;;;;;9.77;49.15;97763.88;5035859;28;19929;-55
2023/04/20 10:30:49;;;;;;;;;;;;;;;9.94;49.36;97761.25;5031272;28;19925;-55
2023/04/20 10:33:19;;;;;;;;;;;;;;;10.17;50.14;97763.91;5020463;28;20047;-56
2023/04/20 10:35:48;;;;;;;;;;;;;;;10.30;49.65;97767.69;5027544;28;19921;-55
2023/04/20 10:38:16;;;;;;;;;;;;;;;10.19;48.88;97764.44;5048630;28;19921;-54
2023/04/20 10:40:43;;;;;;;;;;;;;;;10.09;50.24;97753.84;5045920;28;19935;-55
2023/04/20 10:43:21;;;;;;;;;;;;;;;9.79;50.04;97753.50;5047351;28;20248;-55
2023/04/20 10:45:49;;;;;;;;;;;;;;;9.77;51.15;97749.50;5026442;28;19928;-54
2023/04/20 10:48:17;;;;;;;;;;;;;;;9.86;50.95;97745.75;5046010;28;19921;-54
2023/04/20 10:50:46;;;;;;;;;;;;;;;9.97;50.73;97740.84;5043883;28;19920;-54
2023/04/20 10:53:18;;;;;;;;;;;;;;;10.03;50.18;97742.31;5045910;28;20370;-55
2023/04/20 10:55:45;;;;;;;;;;;;;;;9.82;50.46;97743.94;5035920;28;19975;-54
2023/04/20 10:58:22;;;;;;;;;;;;;;;9.73;50.71;97735.75;5034649;28;19925;-56
2023/04/20 11:00:57;;;;;;;;;;;;;;;9.84;51.09;97730.88;5041012;28;19959;-55
2023/04/20 11:03:25;;;;;;;;;;;;;;;9.92;51.14;97732.84;5045978;28;20003;-54
2023/04/20 11:05:56;;;;;;;;;;;;;;;9.93;50.80;97729.00;5027594;28;19963;-59
2023/04/20 11:08:24;;;;;;;;;;;;;;;9.86;51.20;97728.66;5029710;28;20704;-55
2023/04/20 11:10:51;;;;;;;;;;;;;;;9.83;51.31;97719.22;5029369;28;19920;-60
2023/04/20 11:13:21;;;;;;;;;;;;;;;9.93;50.92;97710.81;5049465;28;19925;-55
2023/04/20 11:15:48;;;;;;;;;;;;;;;10.18;50.89;97700.41;5037385;28;19928;-55
2023/04/20 11:18:17;;;;;;;;;;;;;;;10.40;50.41;97705.75;5043653;28;20589;-55
2023/04/20 11:20:51;;;;;;;;;;;;;;;10.67;50.34;97703.91;5044354;28;19927;-56
2023/04/20 11:23:21;;;;;;;;;;;;;;;10.63;49.20;97695.59;5030844;28;19921;-56
2023/04/20 11:25:49;;;;;;;;;;;;;;;10.66;49.30;97680.59;5043942;28;19928;-57
2023/04/20 11:28:17;;;;;;;;;;;;;;;10.55;49.55;97679.28;5033729;28;19921;-55
2023/04/20 11:30:45;;;;;;;;;;;;;;;10.59;49.13;97686.47;5053825;28;19921;-56
2023/04/20 11:33:13;;;;;;;;;;;;;;;10.50;49.62;97672.09;5041341;28;20411;-55
2023/04/20 11:35:42;;;;;;;;;;;;;;;10.32;50.63;97668.50;5043388;28;20362;-56
2023/04/20 11:38:10;;;;;;;;;;;;;;;10.51;49.92;97668.25;5046676;28;19927;-57
2023/04/20 11:40:40;;;;;;;;;;;;;;;10.45;49.88;97669.53;5048357;28;19928;-55
2023/04/20 11:43:08;;;;;;;;;;;;;;;10.65;49.93;97668.94;5049886;28;19970;-56
2023/04/20 11:45:36;;;;;;;;;;;;;;;10.79;50.05;97668.75;5044503;28;19920;-58
2023/04/20 11:48:05;;;;;;;;;;;;;;;10.67;49.66;97671.31;5032272;28;19958;-57
2023/04/20 11:50:33;;;;;;;;;;;;;;;10.45;49.69;97674.94;5049966;28;19921;-55
2023/04/20 11:53:01;;;;;;;;;;;;;;;10.46;50.27;97666.47;5042007;28;19921;-54
2023/04/20 11:55:28;;;;;;;;;;;;;;;10.40;50.44;97667.75;5052935;28;19927;-54
2023/04/20 11:57:58;;;;;;;;;;;;;;;10.34;50.65;97674.44;5042032;28;19920;-54
2023/04/20 12:00:26;;;;;;;;;;;;;;;10.04;51.26;97675.25;5021877;28;20274;-54
2023/04/20 12:02:53;;;;;;;;;;;;;;;9.94;51.74;97679.03;5038718;28;19927;-57
2023/04/20 12:05:21;;;;;;;;;;;;;;;9.78;51.83;97669.72;5028093;28;19929;-55
2023/04/20 12:07:49;;;;;;;;;;;;;;;9.61;53.03;97671.22;5050404;28;19925;-61
2023/04/20 12:10:20;;;;;;;;;;;;;;;9.51;52.65;97678.81;5051382;28;19920;-56
2023/04/20 12:12:47;;;;;;;;;;;;;;;9.69;53.60;97675.91;5040809;28;19928;-54
2023/04/20 12:15:18;;;;;;;;;;;;;;;9.84;52.75;97684.75;5043340;28;19921;-55
2023/04/20 12:17:46;;;;;;;;;;;;;;;9.68;52.60;97679.72;5049177;28;19928;-55
2023/04/20 12:20:13;;;;;;;;;;;;;;;9.61;52.87;97667.72;5049067;28;19963;-54
2023/04/20 12:22:41;;;;;;;;;;;;;;;9.64;53.07;97676.03;5048676;28;20413;-55
2023/04/20 12:25:09;;;;;;;;;;;;;;;9.63;53.43;97676.31;5028858;28;19943;-54
2023/04/20 12:27:37;;;;;;;;;;;;;;;9.54;53.68;97672.78;5044173;28;19943;-54
2023/04/20 12:30:08;;;;;;;;;;;;;;;9.48;54.00;97677.53;5047109;28;19928;-54
2023/04/20 12:32:39;;;;;;;;;;;;;;;9.54;54.22;97668.16;5034188;28;20008;-54
2023/04/20 12:35:08;;;;;;;;;;;;;;;9.50;54.04;97674.50;5047436;28;19936;-58
2023/04/20 12:37:36;;;;;;;;;;;;;;;9.59;54.63;97676.16;5050961;28;20312;-54
2023/04/20 12:40:05;;;;;;;;;;;;;;;9.63;54.21;97681.75;5029165;28;19928;-56
2023/04/20 12:42:34;;;;;;;;;;;;;;;9.58;54.77;97681.88;5030639;28;19921;-53
2023/04/20 12:45:02;;;;;;;;;;;;;;;9.58;54.89;97673.75;5045545;28;19925;-55
2023/04/20 12:47:32;;;;;;;;;;;;;;;9.59;54.44;97675.38;5055472;28;20011;-56
2023/04/20 12:50:02;;;;;;;;;;;;;;;9.56;54.58;97671.34;5025388;28;19978;-54
2023/04/20 12:52:29;;;;;;;;;;;;;;;9.53;55.02;97671.16;5052508;28;19929;-54
2023/04/20 12:54:57;;;;;;;;;;;;;;;9.38;55.38;97662.31;5029026;28;19974;-57
2023/04/20 12:57:25;;;;;;;;;;;;;;;9.28;55.72;97659.84;5022458;28;20356;-54
2023/04/20 12:59:53;;;;;;;;;;;;;;;9.28;56.04;97670.69;5031282;28;19932;-55
2023/04/20 13:02:21;;;;;;;;;;;;;;;9.32;55.81;97673.56;5047249;28;19920;-60
2023/04/20 13:04:49;;;;;;;;;;;;;;;9.35;55.96;97673.78;5037713;28;19927;-55